Terminal Aerodrome Forecast
Issued by NWS Burlington, VT

Home | Current Version | Previous Version | Text Only | Print | Product List | Glossary On
Versions: 1 2 3 4 5 6 7 8 9 10 11 12 13 14 15 16 17 18 19 20 21 22 23
000
FTUS41 KBTV 040520
TAFBTV
TAF
KBTV 040520Z 0406/0506 16005KT P6SM SCT120
     FM041300 19004KT P6SM VCSH SCT040 BKN100
     FM041500 21007KT 6SM SHRA BKN050
     FM042200 24006KT P6SM VCSH BKN100=

USA.gov is the U.S. government's official web portal to all federal, state and local government web resources and services.